createdAt,value
2017-07-15T00:02:26.733Z,100605.97
2017-07-15T00:04:56.447Z,100609.23
2017-07-15T00:07:26.186Z,100609.59
2017-07-15T00:09:56.023Z,100608.70
2017-07-15T00:12:26.691Z,100613.37
2017-07-15T00:14:56.436Z,100608.14
2017-07-15T00:17:26.239Z,100610.64
2017-07-15T00:19:56.071Z,100624.81
2017-07-15T00:22:26.799Z,100615.94
2017-07-15T00:24:56.492Z,100618.00
2017-07-15T00:27:26.226Z,100622.55
2017-07-15T00:29:56.710Z,100614.42
2017-07-15T00:32:26.527Z,100614.53
2017-07-15T00:34:56.272Z,100617.17
2017-07-15T00:37:26.002Z,100619.86
2017-07-15T00:39:56.421Z,100628.54
2017-07-15T00:42:26.156Z,100624.96
2017-07-15T00:44:56.864Z,100625.74
2017-07-15T00:47:27.200Z,100626.75
2017-07-15T00:49:57.045Z,100619.48
2017-07-15T00:52:27.150Z,100627.33
2017-07-15T00:54:56.970Z,100626.86
2017-07-15T00:57:27.431Z,100620.56
2017-07-15T00:59:57.178Z,100622.47
2017-07-15T01:02:26.943Z,100616.83
2017-07-15T01:04:56.716Z,100621.45
2017-07-15T01:07:26.464Z,100618.23
2017-07-15T01:09:56.244Z,100619.02
2017-07-15T01:12:26.066Z,100619.44
2017-07-15T01:14:55.801Z,100620.06
2017-07-15T01:17:25.603Z,100617.30
2017-07-15T01:19:55.108Z,100626.28
2017-07-15T01:22:24.831Z,100627.08
2017-07-15T01:24:54.688Z,100624.58
2017-07-15T01:27:24.446Z,100624.25
2017-07-15T01:30:00.431Z,100628.73
2017-07-15T01:32:33.182Z,100625.05
2017-07-15T01:35:03.207Z,100618.58
2017-07-15T01:37:33.008Z,100626.98
2017-07-15T01:40:03.093Z,100626.23
2017-07-15T01:42:33.000Z,100623.48
2017-07-15T01:45:02.678Z,100629.63
2017-07-15T01:47:32.427Z,100632.39
2017-07-15T01:50:03.465Z,100629.08
2017-07-15T01:52:33.282Z,100627.88
2017-07-15T01:55:02.711Z,100635.51
2017-07-15T01:57:31.819Z,100633.61
2017-07-15T02:00:01.568Z,100632.48
2017-07-15T02:02:31.296Z,100635.94
2017-07-15T02:05:01.041Z,100636.48
2017-07-15T02:07:30.823Z,100635.44
2017-07-15T02:10:00.567Z,100637.06
2017-07-15T02:12:30.359Z,100643.86
2017-07-15T02:15:00.194Z,100642.43
2017-07-15T02:17:30.075Z,100642.89
2017-07-15T02:19:59.799Z,100639.03
2017-07-15T02:22:29.653Z,100647.52
2017-07-15T02:24:59.427Z,100648.68
2017-07-15T02:27:29.324Z,100649.27
2017-07-15T02:29:59.075Z,100645.82
2017-07-15T02:32:32.325Z,100650.63
2017-07-15T02:35:03.231Z,100651.59
2017-07-15T02:37:33.048Z,100654.88
2017-07-15T02:40:03.435Z,100652.19
2017-07-15T02:42:33.214Z,100654.50
2017-07-15T02:45:02.979Z,100650.87
2017-07-15T02:47:33.418Z,100648.22
2017-07-15T02:50:03.259Z,100656.06
2017-07-15T02:52:33.060Z,100657.91
2017-07-15T02:55:03.171Z,100656.30
2017-07-15T02:57:33.063Z,100659.64
2017-07-15T03:00:02.828Z,100661.12
2017-07-15T03:02:32.633Z,100655.01
2017-07-15T03:05:02.425Z,100662.05
2017-07-15T03:07:32.255Z,100666.96
2017-07-15T03:10:02.046Z,100668.25
2017-07-15T03:12:31.763Z,100669.34
2017-07-15T03:15:01.553Z,100674.69
2017-07-15T03:17:30.650Z,100681.17
2017-07-15T03:20:00.366Z,100677.04
2017-07-15T03:22:30.484Z,100677.71
2017-07-15T03:24:59.589Z,100677.64
2017-07-15T03:27:35.362Z,100678.01
2017-07-15T03:30:04.868Z,100685.30
2017-07-15T03:32:34.675Z,100683.02
2017-07-15T03:35:05.743Z,100687.80
2017-07-15T03:37:35.063Z,100688.98
2017-07-15T03:40:04.518Z,100687.55
2017-07-15T03:42:34.267Z,100684.06
2017-07-15T03:45:04.075Z,100695.16
2017-07-15T03:47:33.928Z,100702.35
2017-07-15T03:50:03.727Z,100697.20
2017-07-15T03:52:33.554Z,100695.14
2017-07-15T03:55:03.345Z,100703.88
2017-07-15T03:57:33.167Z,100711.95
2017-07-15T04:00:02.619Z,100711.78
2017-07-15T04:02:32.367Z,100707.66
2017-07-15T04:05:02.163Z,100714.55
2017-07-15T04:07:32.016Z,100712.63
2017-07-15T04:10:01.827Z,100718.31
2017-07-15T04:12:31.681Z,100729.67
2017-07-15T04:15:02.002Z,100726.88
2017-07-15T04:17:32.348Z,100726.63
2017-07-15T04:20:02.124Z,100730.62
2017-07-15T04:22:31.975Z,100736.24
2017-07-15T04:25:02.761Z,100731.01
2017-07-15T04:27:32.992Z,100739.41
2017-07-15T04:30:02.934Z,100739.73
2017-07-15T04:32:33.946Z,100747.13
2017-07-15T04:35:04.509Z,100733.92
2017-07-15T04:37:36.345Z,100737.21
2017-07-15T04:40:07.002Z,100740.89
2017-07-15T04:42:36.758Z,100747.97
2017-07-15T04:45:07.251Z,100746.49
2017-07-15T04:47:37.114Z,100752.89
2017-07-15T04:50:06.850Z,100748.49
2017-07-15T04:52:36.562Z,100761.25
2017-07-15T04:55:06.478Z,100756.08
2017-07-15T04:57:36.497Z,100765.16
2017-07-15T05:00:06.251Z,100768.98
2017-07-15T05:02:36.036Z,100763.84
2017-07-15T05:05:05.917Z,100768.19
2017-07-15T05:07:36.199Z,100765.09
2017-07-15T05:10:06.490Z,100770.59
2017-07-15T05:12:36.840Z,100782.16
2017-07-15T05:15:07.569Z,100787.78
2017-07-15T05:17:37.848Z,100790.25
2017-07-15T05:20:07.705Z,100798.50
2017-07-15T05:22:37.446Z,100800.21
2017-07-15T05:25:07.891Z,100798.21
2017-07-15T05:27:37.707Z,100796.17
2017-07-15T05:30:07.495Z,100802.19
2017-07-15T05:32:37.343Z,100809.75
2017-07-15T05:35:07.423Z,100809.61
2017-07-15T05:37:37.278Z,100813.08
2017-07-15T05:40:07.185Z,100811.97
2017-07-15T05:42:37.131Z,100819.55
2017-07-15T05:45:07.614Z,100828.36
2017-07-15T05:47:38.092Z,100825.83
2017-07-15T05:50:08.981Z,100827.54
2017-07-15T05:52:40.151Z,100831.38
2017-07-15T05:55:10.984Z,100834.22
2017-07-15T05:57:42.168Z,100839.30
2017-07-15T06:00:19.144Z,100843.25
2017-07-15T06:02:49.371Z,100845.24
2017-07-15T06:05:19.107Z,100846.06
2017-07-15T06:07:48.813Z,100850.08
2017-07-15T06:10:19.285Z,100840.78
2017-07-15T06:12:50.615Z,100844.11
2017-07-15T06:15:20.998Z,100845.43
2017-07-15T06:17:51.762Z,100845.19
2017-07-15T06:20:26.107Z,100852.48
2017-07-15T06:22:56.945Z,100848.15
2017-07-15T06:25:29.209Z,100855.69
2017-07-15T06:28:00.466Z,100856.73
2017-07-15T06:30:30.589Z,100862.98
2017-07-15T06:33:00.327Z,100860.69
2017-07-15T06:35:30.710Z,100864.02
2017-07-15T06:38:02.071Z,100877.75
2017-07-15T06:40:32.010Z,100881.14
2017-07-15T06:43:01.645Z,100886.04
2017-07-15T06:45:31.452Z,100879.95
2017-07-15T06:48:01.427Z,100889.65
2017-07-15T06:50:31.513Z,100891.91
2017-07-15T06:53:01.316Z,100897.42
2017-07-15T06:55:32.248Z,100896.39
2017-07-15T06:58:02.049Z,100896.70
2017-07-15T07:00:32.355Z,100900.11
2017-07-15T07:03:02.083Z,100900.03
2017-07-15T07:05:31.898Z,100906.83
2017-07-15T07:08:01.641Z,100909.33
2017-07-15T07:10:31.467Z,100918.81
2017-07-15T07:13:01.257Z,100916.70
2017-07-15T07:15:31.108Z,100918.38
2017-07-15T07:18:00.881Z,100917.56
2017-07-15T07:20:30.689Z,100925.64
2017-07-15T07:23:00.509Z,100929.83
2017-07-15T07:25:30.340Z,100928.22
2017-07-15T07:28:00.149Z,100936.38
2017-07-15T07:30:30.169Z,100940.95
2017-07-15T07:33:00.016Z,100936.77
2017-07-15T07:35:29.784Z,100944.21
2017-07-15T07:37:59.555Z,100947.39
2017-07-15T07:40:29.360Z,100951.01
2017-07-15T07:42:59.159Z,100950.47
2017-07-15T07:45:28.883Z,100957.09
2017-07-15T07:47:58.738Z,100962.85
2017-07-15T07:50:28.521Z,100961.13
2017-07-15T07:52:58.288Z,100970.33
2017-07-15T07:55:28.021Z,100969.72
2017-07-15T07:57:57.855Z,100982.49
2017-07-15T08:00:27.664Z,100980.59
2017-07-15T08:02:57.761Z,100990.29
2017-07-15T08:05:29.109Z,100988.64
2017-07-15T08:08:01.276Z,100989.08
2017-07-15T08:10:31.024Z,100992.23
2017-07-15T08:13:02.322Z,100999.98
2017-07-15T08:15:32.256Z,100998.81
2017-07-15T08:18:02.485Z,100998.31
2017-07-15T08:20:32.305Z,101005.25
2017-07-15T08:23:02.093Z,101004.86
2017-07-15T08:25:31.887Z,101001.17
2017-07-15T08:28:01.647Z,101007.48
2017-07-15T08:30:31.432Z,101010.52
2017-07-15T08:33:01.257Z,101010.64
2017-07-15T08:35:31.020Z,101003.70
2017-07-15T08:38:00.844Z,101007.06
2017-07-15T08:40:30.730Z,101004.27
2017-07-15T08:43:00.595Z,100998.09
2017-07-15T08:45:30.869Z,100999.69
2017-07-15T08:48:00.605Z,101005.68
2017-07-15T08:50:30.402Z,101008.95
2017-07-15T08:53:00.724Z,101006.58
2017-07-15T08:55:30.759Z,101002.55
2017-07-15T08:58:01.093Z,101008.86
2017-07-15T09:00:31.727Z,101002.67
2017-07-15T09:03:01.708Z,100998.21
2017-07-15T09:05:31.382Z,100989.45
2017-07-15T09:08:01.184Z,100997.77
2017-07-15T09:10:30.988Z,100994.17
2017-07-15T09:13:00.757Z,100995.79
2017-07-15T09:15:30.503Z,100988.65
2017-07-15T09:18:00.240Z,100988.14
2017-07-15T09:20:30.110Z,100987.64
2017-07-15T09:22:59.837Z,100992.10
2017-07-15T09:25:29.606Z,100985.90
2017-07-15T09:27:59.377Z,100991.20
2017-07-15T09:30:29.460Z,100998.52
2017-07-15T09:32:59.196Z,100996.89
2017-07-15T09:35:28.960Z,100997.88
2017-07-15T09:37:58.769Z,100998.08
2017-07-15T09:40:28.555Z,101005.30
2017-07-15T09:42:58.422Z,101005.21
2017-07-15T09:45:29.111Z,101003.73
2017-07-15T09:47:58.860Z,101005.42
2017-07-15T09:50:28.614Z,101013.03
2017-07-15T09:52:58.360Z,101018.04
2017-07-15T09:55:28.167Z,101008.16
2017-07-15T09:57:58.476Z,101017.88
2017-07-15T10:00:28.252Z,101026.34
2017-07-15T10:02:58.023Z,101026.38
2017-07-15T10:05:27.720Z,101025.03
2017-07-15T10:07:57.488Z,101031.67
2017-07-15T10:10:27.182Z,101032.23
2017-07-15T10:12:56.900Z,101041.76
2017-07-15T10:15:26.695Z,101038.72
2017-07-15T10:17:56.386Z,101037.50
2017-07-15T10:20:26.159Z,101036.38
2017-07-15T10:22:55.931Z,101039.67
2017-07-15T10:25:25.692Z,101040.82
2017-07-15T10:27:55.555Z,101044.45
2017-07-15T10:30:25.263Z,101035.69
2017-07-15T10:32:55.000Z,101036.30
2017-07-15T10:35:24.778Z,101037.16
2017-07-15T10:37:54.557Z,101049.70
2017-07-15T10:40:24.434Z,101046.55
2017-07-15T10:42:54.139Z,101046.73
2017-07-15T10:45:23.932Z,101046.95
2017-07-15T10:47:53.765Z,101050.37
2017-07-15T10:50:24.187Z,101054.95
2017-07-15T10:52:54.007Z,101052.41
2017-07-15T10:55:23.810Z,101054.50
2017-07-15T10:57:53.717Z,101054.44
2017-07-15T11:00:23.853Z,101053.17
2017-07-15T11:02:54.331Z,101063.28
2017-07-15T11:05:24.203Z,101058.66
2017-07-15T11:07:53.971Z,101053.03
2017-07-15T11:10:25.254Z,101060.70
2017-07-15T11:12:57.899Z,101057.22
2017-07-15T11:15:29.223Z,101056.50
2017-07-15T11:18:02.600Z,101064.73
2017-07-15T11:23:21.858Z,101070.04
2017-07-15T11:25:52.287Z,101068.22
2017-07-15T11:28:22.102Z,101068.34
2017-07-15T11:30:51.916Z,101063.38
2017-07-15T11:33:23.082Z,101062.68
2017-07-15T11:35:52.768Z,101062.73
2017-07-15T11:38:22.542Z,101067.21
2017-07-15T11:40:52.272Z,101068.75
2017-07-15T11:43:22.082Z,101068.47
2017-07-15T11:45:51.848Z,101065.89
2017-07-15T11:48:22.172Z,101069.75
2017-07-15T11:50:52.422Z,101071.28
2017-07-15T11:53:22.177Z,101067.56
2017-07-15T11:55:51.890Z,101064.73
2017-07-15T11:58:21.624Z,101065.68
2017-07-15T12:00:51.411Z,101067.64
2017-07-15T12:03:21.232Z,101068.32
2017-07-15T12:05:50.928Z,101071.16
2017-07-15T12:08:20.616Z,101066.80
2017-07-15T12:10:50.393Z,101068.38
2017-07-15T12:13:20.177Z,101072.20
2017-07-15T12:15:55.061Z,101062.41
2017-07-15T12:18:24.809Z,101063.27
2017-07-15T12:20:54.352Z,101063.17
2017-07-15T12:23:25.998Z,101067.50
2017-07-15T12:25:55.817Z,101068.86
2017-07-15T12:28:25.901Z,101065.44
2017-07-15T12:30:56.307Z,101062.59
2017-07-15T12:33:27.147Z,101062.88
2017-07-15T12:35:57.315Z,101062.94
2017-07-15T12:38:28.357Z,101068.73
2017-07-15T12:40:59.297Z,101072.05
2017-07-15T12:43:31.100Z,101067.80
2017-07-15T12:46:03.924Z,101063.94
2017-07-15T12:48:35.818Z,101066.39
2017-07-15T12:51:06.677Z,101068.64
2017-07-15T12:53:38.317Z,101066.75
2017-07-15T12:56:09.172Z,101069.18
2017-07-15T12:58:38.934Z,101069.62
2017-07-15T13:01:08.733Z,101064.95
2017-07-15T13:03:38.494Z,101069.14
2017-07-15T13:06:08.234Z,101062.84
2017-07-15T13:08:38.660Z,101055.27
2017-07-15T13:11:08.492Z,101063.45
2017-07-15T13:13:38.268Z,101058.44
2017-07-15T13:16:08.066Z,101057.40
2017-07-15T13:18:41.312Z,101070.59
2017-07-15T13:21:10.997Z,101056.23
2017-07-15T13:23:40.742Z,101061.24
2017-07-15T13:26:10.501Z,101061.14
2017-07-15T13:28:40.952Z,101055.80
2017-07-15T13:31:10.662Z,101053.44
2017-07-15T13:33:40.391Z,101052.08
2017-07-15T13:36:10.233Z,101060.87
2017-07-15T13:38:40.017Z,101063.06
2017-07-15T13:41:09.811Z,101061.75
2017-07-15T13:43:39.568Z,101057.19
2017-07-15T13:46:09.259Z,101056.63
2017-07-15T13:48:39.123Z,101057.21
2017-07-15T13:51:08.882Z,101061.97
2017-07-15T13:53:38.599Z,101064.26
2017-07-15T13:56:08.324Z,101061.19
2017-07-15T13:58:38.099Z,101056.59
2017-07-15T14:01:07.896Z,101051.95
2017-07-15T14:03:37.750Z,101059.27
2017-07-15T14:06:07.474Z,101056.98
2017-07-15T14:08:37.193Z,101051.79
2017-07-15T14:11:06.987Z,101056.77
2017-07-15T14:13:37.380Z,101051.62
2017-07-15T14:16:07.128Z,101048.68
2017-07-15T14:18:36.864Z,101044.91
2017-07-15T14:21:06.577Z,101052.97
2017-07-15T14:23:36.284Z,101051.67
2017-07-15T14:26:06.039Z,101053.22
2017-07-15T14:28:35.814Z,101050.58
2017-07-15T14:31:05.551Z,101061.59
2017-07-15T14:33:35.343Z,101060.42
2017-07-15T14:36:04.724Z,101062.63
2017-07-15T14:38:34.544Z,101062.81
2017-07-15T14:41:04.283Z,101057.37
2017-07-15T14:43:33.993Z,101060.09
2017-07-15T14:46:03.724Z,101061.43
2017-07-15T14:48:33.425Z,101059.14
2017-07-15T14:51:03.168Z,101051.13
2017-07-15T14:53:36.056Z,101052.33
2017-07-15T14:56:05.788Z,101064.05
2017-07-15T14:58:35.559Z,101059.11
2017-07-15T15:01:05.344Z,101058.06
2017-07-15T15:03:35.102Z,101064.50
2017-07-15T15:06:04.900Z,101058.78
2017-07-15T15:08:34.657Z,101060.30
2017-07-15T15:11:04.470Z,101064.13
2017-07-15T15:13:34.233Z,101063.01
2017-07-15T15:16:04.827Z,101069.06
2017-07-15T15:18:34.580Z,101061.67
2017-07-15T15:21:04.351Z,101072.99
2017-07-15T15:23:34.118Z,101062.73
2017-07-15T15:26:03.834Z,101060.67
2017-07-15T15:28:33.551Z,101059.88
2017-07-15T15:31:03.874Z,101060.43
2017-07-15T15:33:33.609Z,101064.91
2017-07-15T15:36:03.420Z,101065.36
2017-07-15T15:38:33.671Z,101068.62
2017-07-15T15:41:03.422Z,101064.69
2017-07-15T15:43:33.187Z,101060.91
2017-07-15T15:46:02.995Z,101067.78
2017-07-15T15:48:32.703Z,101060.63
2017-07-15T15:51:02.545Z,101067.75
2017-07-15T15:53:38.462Z,101057.20
2017-07-15T15:56:08.196Z,101058.05
2017-07-15T15:58:38.360Z,101061.94
2017-07-15T16:01:08.169Z,101059.45
2017-07-15T16:03:37.936Z,101061.47
2017-07-15T16:06:07.737Z,101068.38
2017-07-15T16:08:37.507Z,101061.78
2017-07-15T16:11:07.280Z,101058.20
2017-07-15T16:13:37.321Z,101068.64
2017-07-15T16:16:07.115Z,101073.26
2017-07-15T16:18:36.837Z,101069.55
2017-07-15T16:21:06.667Z,101070.14
2017-07-15T16:23:36.534Z,101069.42
2017-07-15T16:26:06.899Z,101068.48
2017-07-15T16:28:36.679Z,101074.16
2017-07-15T16:31:06.399Z,101079.59
2017-07-15T16:33:36.163Z,101081.70
2017-07-15T16:36:05.923Z,101077.83
2017-07-15T16:38:35.700Z,101086.28
2017-07-15T16:41:06.299Z,101088.14
2017-07-15T16:43:36.151Z,101088.09
2017-07-15T16:46:05.950Z,101084.03
2017-07-15T16:48:36.223Z,101092.88
2017-07-15T16:51:06.511Z,101094.15
2017-07-15T16:53:36.187Z,101091.67
2017-07-15T16:56:06.007Z,101098.05
2017-07-15T16:58:35.740Z,101095.23
2017-07-15T17:01:05.811Z,101088.42
2017-07-15T17:03:35.520Z,101090.15
2017-07-15T17:06:04.927Z,101098.91
2017-07-15T17:08:40.109Z,101100.63
2017-07-15T17:11:11.731Z,101095.38
2017-07-15T17:13:41.684Z,101098.05
2017-07-15T17:16:12.207Z,101098.42
2017-07-15T17:18:44.606Z,101103.20
2017-07-15T17:21:15.346Z,101108.01
2017-07-15T17:23:46.984Z,101104.16
2017-07-15T17:26:19.332Z,101105.64
2017-07-15T17:28:50.182Z,101110.45
2017-07-15T17:31:20.904Z,101116.03
2017-07-15T17:33:52.998Z,101117.84
2017-07-15T17:36:24.650Z,101108.55
2017-07-15T17:38:57.227Z,101109.78
2017-07-15T17:41:28.703Z,101111.20
2017-07-15T17:44:00.455Z,101111.70
2017-07-15T17:46:31.483Z,101102.40
2017-07-15T17:49:03.957Z,101112.44
2017-07-15T17:51:37.925Z,101118.41
2017-07-15T17:54:08.897Z,101119.94
2017-07-15T17:56:39.687Z,101118.58
2017-07-15T17:59:11.070Z,101129.70
2017-07-15T18:01:43.789Z,101129.00
2017-07-15T18:04:15.130Z,101126.13
2017-07-15T18:06:45.160Z,101127.83
2017-07-15T18:09:17.285Z,101125.44
2017-07-15T18:11:48.548Z,101134.87
2017-07-15T18:14:20.295Z,101140.12
2017-07-15T18:16:52.642Z,101146.94
2017-07-15T18:19:24.352Z,101143.41
2017-07-15T18:21:56.085Z,101146.48
2017-07-15T18:24:28.295Z,101150.55
2017-07-15T18:26:58.703Z,101155.72
2017-07-15T18:29:29.852Z,101152.74
2017-07-15T18:32:04.847Z,101152.84
2017-07-15T18:34:37.608Z,101145.06
2017-07-15T18:37:09.209Z,101149.03
2017-07-15T18:39:41.733Z,101155.30
2017-07-15T18:42:12.433Z,101156.13
2017-07-15T18:44:42.160Z,101154.36
2017-07-15T18:47:11.898Z,101156.87
2017-07-15T18:49:41.543Z,101155.58
2017-07-15T18:52:11.305Z,101157.86
2017-07-15T18:54:43.364Z,101160.53
2017-07-15T18:57:15.510Z,101158.98
2017-07-15T18:59:46.164Z,101165.34
2017-07-15T19:02:16.350Z,101168.47
2017-07-15T19:04:47.679Z,101163.00
2017-07-15T19:07:19.027Z,101168.66
2017-07-15T19:09:50.378Z,101169.14
2017-07-15T19:12:21.298Z,101170.25
2017-07-15T19:14:53.333Z,101180.58
2017-07-15T19:17:24.829Z,101177.66
2017-07-15T19:19:55.036Z,101181.06
2017-07-15T19:22:25.281Z,101185.29
2017-07-15T19:24:55.804Z,101188.28
2017-07-15T19:27:27.268Z,101189.91
2017-07-15T19:29:57.327Z,101189.03
2017-07-15T19:32:27.736Z,101198.17
2017-07-15T19:34:57.791Z,101200.41
2017-07-15T19:37:28.465Z,101207.98
2017-07-15T19:39:59.211Z,101209.66
2017-07-15T19:42:29.439Z,101217.81
2017-07-15T19:45:00.018Z,101216.11
2017-07-15T19:47:31.523Z,101223.61
2017-07-15T19:50:01.852Z,101225.53
2017-07-15T19:52:32.541Z,101226.22
2017-07-15T19:55:03.096Z,101226.77
2017-07-15T19:57:33.959Z,101232.67
2017-07-15T20:00:04.734Z,101225.94
2017-07-15T20:02:35.096Z,101230.25
2017-07-15T20:05:05.251Z,101229.82
2017-07-15T20:07:35.443Z,101235.34
2017-07-15T20:10:05.698Z,101233.77
2017-07-15T20:12:36.024Z,101237.26
2017-07-15T20:15:06.363Z,101242.77
2017-07-15T20:17:36.690Z,101236.83
2017-07-15T20:20:07.062Z,101239.52
2017-07-15T20:22:36.827Z,101241.36
2017-07-15T20:25:07.207Z,101241.40
2017-07-15T20:27:37.377Z,101241.67
2017-07-15T20:30:08.657Z,101248.23
2017-07-15T20:32:39.874Z,101256.33
2017-07-15T20:35:11.215Z,101256.87
2017-07-15T20:37:41.392Z,101255.73
2017-07-15T20:40:11.450Z,101252.45
2017-07-15T20:42:41.592Z,101249.67
2017-07-15T20:45:11.818Z,101260.45
2017-07-15T20:47:41.996Z,101266.00
2017-07-15T20:50:12.211Z,101261.70
2017-07-15T20:53:02.134Z,101263.30
2017-07-15T20:55:43.551Z,101265.53
2017-07-15T20:58:14.034Z,101269.66
2017-07-15T21:00:43.749Z,101270.92
2017-07-15T21:03:13.481Z,101274.42
2017-07-15T21:05:43.096Z,101273.13
2017-07-15T21:08:12.823Z,101266.49
2017-07-15T21:10:42.523Z,101271.34
2017-07-15T21:13:12.360Z,101270.91
2017-07-15T21:15:42.156Z,101278.91
2017-07-15T21:18:11.877Z,101273.33
2017-07-15T21:20:41.712Z,101273.14
2017-07-15T21:23:11.509Z,101276.44
2017-07-15T21:25:41.358Z,101275.05
2017-07-15T21:28:11.136Z,101276.80
2017-07-15T21:30:41.565Z,101275.23
2017-07-15T21:33:11.263Z,101277.20
2017-07-15T21:35:41.004Z,101268.30
2017-07-15T21:38:12.389Z,101275.00
2017-07-15T21:40:43.278Z,101275.28
2017-07-15T21:43:13.829Z,101277.57
2017-07-15T21:45:43.638Z,101279.55
2017-07-15T21:48:13.426Z,101282.20
2017-07-15T21:50:43.263Z,101283.72
2017-07-15T21:53:12.989Z,101283.43
2017-07-15T21:55:42.740Z,101285.91
2017-07-15T21:58:12.140Z,101281.67
2017-07-15T22:00:41.907Z,101284.93
2017-07-15T22:03:11.286Z,101284.36
2017-07-15T22:05:40.292Z,101281.51
2017-07-15T22:08:10.068Z,101288.08
2017-07-15T22:10:39.877Z,101289.92
2017-07-15T22:13:10.427Z,101287.43
2017-07-15T22:15:40.200Z,101295.91
2017-07-15T22:18:10.010Z,101292.31
2017-07-15T22:20:39.752Z,101295.42
2017-07-15T22:23:09.556Z,101294.19
2017-07-15T22:25:39.408Z,101291.39
2017-07-15T22:28:09.107Z,101293.87
2017-07-15T22:30:38.872Z,101299.77
2017-07-15T22:33:08.608Z,101297.18
2017-07-15T22:35:38.383Z,101305.59
2017-07-15T22:38:08.262Z,101306.48
2017-07-15T22:40:38.044Z,101307.52
2017-07-15T22:43:07.739Z,101306.74
2017-07-15T22:45:37.478Z,101309.88
2017-07-15T22:48:07.267Z,101307.91
2017-07-15T22:50:37.032Z,101313.57
2017-07-15T22:53:06.819Z,101317.61
2017-07-15T22:55:36.539Z,101314.36
2017-07-15T22:58:05.913Z,101312.67
2017-07-15T23:00:35.673Z,101312.63
2017-07-15T23:03:06.060Z,101309.72
2017-07-15T23:05:35.783Z,101312.84
2017-07-15T23:08:05.502Z,101316.81
2017-07-15T23:10:35.790Z,101316.55
2017-07-15T23:13:06.562Z,101319.41
2017-07-15T23:15:36.412Z,101319.70
2017-07-15T23:18:06.184Z,101321.42
2017-07-15T23:20:35.930Z,101323.91
2017-07-15T23:23:05.762Z,101322.18
2017-07-15T23:25:35.547Z,101321.45
2017-07-15T23:28:05.344Z,101317.67
2017-07-15T23:30:35.956Z,101322.64
2017-07-15T23:33:05.750Z,101319.94
2017-07-15T23:35:35.523Z,101314.23
2017-07-15T23:38:05.268Z,101316.91
2017-07-15T23:40:35.089Z,101323.79
2017-07-15T23:43:05.441Z,101315.45
2017-07-15T23:45:35.300Z,101320.09
2017-07-15T23:48:05.050Z,101317.52
2017-07-15T23:50:34.868Z,101319.23
2017-07-15T23:53:04.732Z,101323.70
2017-07-15T23:55:34.480Z,101318.98
2017-07-15T23:58:04.351Z,101316.09
